RNO weather

Reno Tahoe International Airport
Reno, Nevada, United States

Public forecast

Using degrees Fahrenheit for public forecast. Weather courtesy of forecast.io.

Current aviation weather report (METAR) for Reno Tahoe International Airport

Retrieved 2020/03/30 22:55 UTC (39 minutes ago):

KRNO 302255Z 33010G18KT 10SM SCT065 BKN100 BKN170 13/M02 A3014 RMK AO2 SLP194 ACSL ALQDS CLDS TPG MTNS DSNT SW T01281017

Aviation forecast (TAF) for Reno Tahoe International Airport

Retrieved 2020/03/30 18:42 UTC (5 hours ago):

TAF KRNO 301739Z 3018/3118 VRB05KT P6SM SCT050 BKN180 FM301900 26013G23KT P6SM BKN060 BKN140 BKN180 FM310400 25010KT P6SM SCT050 BKN150 FM310800 20007KT P6SM SCT040 BKN180 WS020/24035KT